Time,TemperatureF,DewpointF,PressureIn,WindDirection,WindDirectionDegrees,WindSpeedMPH,WindSpeedGustMPH,Humidity,HourlyPrecipIn,Conditions,Clouds,dailyrainin,SoftwareType,DateUTC
2013-02-06 00:01:00,25.0,15.0,-100.00,SSE,165,1.0,3.0,64,-99.99,,,-99.99,,2013-02-06 09:01:00,
2013-02-06 00:11:00,25.0,15.0,-100.00,SSE,165,1.0,3.0,64,-99.99,,,-99.99,,2013-02-06 09:11:00,
2013-02-06 00:21:00,26.0,14.0,-100.00,East,100,0.0,3.0,61,-99.99,,,-99.99,,2013-02-06 09:21:00,
2013-02-06 00:31:00,26.0,14.0,-100.00,SSE,166,1.0,2.0,60,-99.99,,,-99.99,,2013-02-06 09:31:00,
2013-02-06 00:41:00,26.0,14.0,-100.00,SSE,166,1.0,2.0,60,-99.99,,,-99.99,,2013-02-06 09:41:00,
2013-02-06 00:51:00,26.0,15.0,-100.00,SSE,166,1.0,2.0,62,-99.99,,,-99.99,,2013-02-06 09:51:00,
2013-02-06 01:01:00,26.0,15.0,-100.00,South,170,0.0,2.0,62,-99.99,,,-99.99,,2013-02-06 10:01:00,
2013-02-06 01:11:00,26.0,15.0,-100.00,South,170,0.0,2.0,62,-99.99,,,-99.99,,2013-02-06 10:11:00,
2013-02-06 01:21:00,26.0,15.0,-100.00,SE,132,0.0,0.0,63,-99.99,,,-99.99,,2013-02-06 10:21:00,
2013-02-06 01:31:00,26.0,15.0,-100.00,NE,51,0.0,0.0,62,-99.99,,,-99.99,,2013-02-06 10:31:00,
2013-02-06 01:41:00,26.0,15.0,-100.00,NE,51,0.0,0.0,62,-99.99,,,-99.99,,2013-02-06 10:41:00,
2013-02-06 01:51:00,26.0,15.0,-100.00,NE,51,0.0,0.0,62,-99.99,,,-99.99,,2013-02-06 10:51:00,
2013-02-06 02:01:00,25.0,15.0,-100.00,South,182,0.0,1.0,64,-99.99,,,-99.99,,2013-02-06 11:01:00,
2013-02-06 02:11:00,25.0,15.0,-100.00,South,182,0.0,1.0,64,-99.99,,,-99.99,,2013-02-06 11:11:00,
2013-02-06 02:22:00,25.0,15.0,-100.00,South,171,0.0,2.0,64,-99.99,,,-99.99,,2013-02-06 11:22:00,
2013-02-06 02:32:00,25.0,15.0,-100.00,SSW,199,0.0,1.0,64,-99.99,,,-99.99,,2013-02-06 11:32:00,
2013-02-06 02:42:00,25.0,15.0,-100.00,SSW,199,0.0,1.0,64,-99.99,,,-99.99,,2013-02-06 11:42:00,
2013-02-06 02:52:00,24.0,14.0,-100.00,SSW,197,1.0,2.0,66,-99.99,,,-99.99,,2013-02-06 11:52:00,
2013-02-06 03:01:00,24.0,15.0,-100.00,SSE,168,1.0,2.0,67,-99.99,,,-99.99,,2013-02-06 12:01:00,
2013-02-06 03:12:00,24.0,15.0,-100.00,SSE,168,1.0,2.0,67,-99.99,,,-99.99,,2013-02-06 12:12:00,
2013-02-06 03:22:00,24.0,14.0,-100.00,South,177,0.0,2.0,66,-99.99,,,-99.99,,2013-02-06 12:22:00,
2013-02-06 03:32:00,24.0,14.0,-100.00,East,80,0.0,0.0,66,-99.99,,,-99.99,,2013-02-06 12:32:00,
2013-02-06 03:42:00,24.0,14.0,-100.00,East,80,0.0,0.0,66,-99.99,,,-99.99,,2013-02-06 12:42:00,
2013-02-06 03:52:00,25.0,15.0,-100.00,ENE,58,1.0,2.0,66,-99.99,,,-99.99,,2013-02-06 12:52:00,
2013-02-06 04:01:00,25.0,15.0,-100.00,West,278,0.0,0.0,64,-99.99,,,-99.99,,2013-02-06 13:01:00,
2013-02-06 04:11:00,25.0,15.0,-100.00,West,278,0.0,0.0,64,-99.99,,,-99.99,,2013-02-06 13:11:00,
2013-02-06 04:21:00,25.0,16.0,-100.00,NNW,332,0.0,1.0,67,-99.99,,,-99.99,,2013-02-06 13:21:00,
2013-02-06 04:31:00,24.0,15.0,-100.00,SW,221,0.0,1.0,69,-99.99,,,-99.99,,2013-02-06 13:31:00,
2013-02-06 04:42:00,24.0,15.0,-100.00,SW,221,0.0,1.0,69,-99.99,,,-99.99,,2013-02-06 13:42:00,
2013-02-06 04:52:00,23.0,17.0,-100.00,South,171,0.0,2.0,79,-99.99,,,-99.99,,2013-02-06 13:52:00,
2013-02-06 05:01:00,23.0,19.0,-100.00,South,179,2.0,3.0,83,-99.99,,,-99.99,,2013-02-06 14:01:00,
2013-02-06 05:11:00,23.0,19.0,-100.00,South,179,2.0,3.0,83,-99.99,,,-99.99,,2013-02-06 14:11:00,
2013-02-06 05:21:00,22.0,19.0,-100.00,South,172,2.0,4.0,88,-99.99,,,-99.99,,2013-02-06 14:21:00,
2013-02-06 05:31:00,23.0,21.0,-100.00,SE,145,0.0,3.0,90,-99.99,,,-99.99,,2013-02-06 14:31:00,
2013-02-06 05:41:00,23.0,21.0,-100.00,SE,145,0.0,3.0,90,-99.99,,,-99.99,,2013-02-06 14:41:00,
2013-02-06 05:52:00,23.0,21.0,-100.00,SE,145,0.0,3.0,90,-99.99,,,-99.99,,2013-02-06 14:52:00,
2013-02-06 06:01:00,23.0,21.0,-100.00,NNE,13,0.0,3.0,92,-99.99,,,-99.99,,2013-02-06 15:01:00,
2013-02-06 06:11:00,23.0,21.0,-100.00,NNE,13,0.0,3.0,92,-99.99,,,-99.99,,2013-02-06 15:11:00,
2013-02-06 06:21:00,23.0,22.0,-100.00,ENE,61,1.0,3.0,94,-99.99,,,-99.99,,2013-02-06 15:21:00,
2013-02-06 06:31:00,23.0,22.0,-100.00,NNE,19,2.0,4.0,95,-99.99,,,-99.99,,2013-02-06 15:31:00,
2013-02-06 06:41:00,23.0,22.0,-100.00,NNE,19,2.0,4.0,95,-99.99,,,-99.99,,2013-02-06 15:41:00,
2013-02-06 06:51:00,23.0,22.0,-100.00,NE,56,3.0,5.0,95,-99.99,,,-99.99,,2013-02-06 15:51:00,
2013-02-06 07:01:00,23.0,22.0,-100.00,NE,46,5.0,8.0,95,-99.99,,,-99.99,,2013-02-06 16:01:00,
2013-02-06 07:11:00,23.0,22.0,-100.00,NE,46,5.0,8.0,95,-99.99,,,-99.99,,2013-02-06 16:11:00,
2013-02-06 07:21:00,23.0,22.0,-100.00,NE,47,5.0,9.0,95,-99.99,,,-99.99,,2013-02-06 16:21:00,
2013-02-06 07:32:00,23.0,22.0,-100.00,NE,47,5.0,9.0,95,-99.99,,,-99.99,,2013-02-06 16:32:00,
2013-02-06 07:42:00,23.0,22.0,-100.00,NE,47,5.0,9.0,95,-99.99,,,-99.99,,2013-02-06 16:42:00,
2013-02-06 07:51:00,23.0,22.0,-100.00,NE,55,4.0,9.0,95,-99.99,,,-99.99,,2013-02-06 16:51:00,
2013-02-06 08:01:00,23.0,22.0,-100.00,NE,49,4.0,8.0,96,-99.99,,,-99.99,,2013-02-06 17:01:00,
2013-02-06 08:11:00,23.0,22.0,-100.00,NE,49,4.0,8.0,96,-99.99,,,-99.99,,2013-02-06 17:11:00,
2013-02-06 08:21:00,23.0,22.0,-100.00,NE,37,3.0,6.0,96,-99.99,,,-99.99,,2013-02-06 17:21:00,
2013-02-06 08:32:00,23.0,22.0,-100.00,NE,37,3.0,6.0,96,-99.99,,,-99.99,,2013-02-06 17:32:00,
2013-02-06 08:41:00,23.0,22.0,-100.00,NE,37,3.0,6.0,96,-99.99,,,-99.99,,2013-02-06 17:41:00,
2013-02-06 08:52:00,23.0,22.0,-100.00,NNE,26,1.0,3.0,96,-99.99,,,-99.99,,2013-02-06 17:52:00,
2013-02-06 09:01:00,23.0,22.0,-100.00,NNE,16,0.0,3.0,96,-99.99,,,-99.99,,2013-02-06 18:01:00,
2013-02-06 09:11:00,23.0,22.0,-100.00,NNE,16,0.0,3.0,96,-99.99,,,-99.99,,2013-02-06 18:11:00,
2013-02-06 09:22:00,23.0,22.0,-100.00,North,10,1.0,2.0,96,-99.99,,,-99.99,,2013-02-06 18:22:00,
2013-02-06 09:32:00,23.0,22.0,-100.00,NNE,17,0.0,1.0,96,-99.99,,,-99.99,,2013-02-06 18:32:00,
2013-02-06 09:41:00,23.0,22.0,-100.00,NNE,17,0.0,1.0,96,-99.99,,,-99.99,,2013-02-06 18:41:00,
2013-02-06 09:52:00,23.0,22.0,-100.00,East,82,0.0,0.0,95,-99.99,,,-99.99,,2013-02-06 18:52:00,
2013-02-06 10:01:00,23.0,22.0,-100.00,SSE,161,0.0,0.0,96,-99.99,,,-99.99,,2013-02-06 19:01:00,
2013-02-06 10:11:00,23.0,22.0,-100.00,SSE,161,0.0,0.0,96,-99.99,,,-99.99,,2013-02-06 19:11:00,
2013-02-06 10:21:00,23.0,22.0,-100.00,SSE,160,0.0,0.0,96,-99.99,,,-99.99,,2013-02-06 19:21:00,
2013-02-06 10:31:00,23.0,22.0,-100.00,SE,146,0.0,1.0,95,-99.99,,,-99.99,,2013-02-06 19:31:00,
2013-02-06 10:41:00,23.0,22.0,-100.00,SE,146,0.0,1.0,95,-99.99,,,-99.99,,2013-02-06 19:41:00,
2013-02-06 10:52:00,23.0,22.0,-100.00,SSW,211,0.0,0.0,95,-99.99,,,-99.99,,2013-02-06 19:52:00,
2013-02-06 11:01:00,23.0,22.0,-100.00,SSW,197,0.0,0.0,95,-99.99,,,-99.99,,2013-02-06 20:01:00,
2013-02-06 11:11:00,23.0,22.0,-100.00,SSW,197,0.0,0.0,95,-99.99,,,-99.99,,2013-02-06 20:11:00,
2013-02-06 11:21:00,23.0,22.0,-100.00,SW,226,0.0,0.0,96,-99.99,,,-99.99,,2013-02-06 20:21:00,
2013-02-06 11:31:00,23.0,22.0,-100.00,SSW,211,0.0,0.0,96,-99.99,,,-99.99,,2013-02-06 20:31:00,
2013-02-06 11:41:00,23.0,22.0,-100.00,SSW,211,0.0,0.0,96,-99.99,,,-99.99,,2013-02-06 20:41:00,
2013-02-06 11:52:00,23.0,22.0,-100.00,SSW,204,0.0,0.0,95,-99.99,,,-99.99,,2013-02-06 20:52:00,
2013-02-06 12:01:00,23.0,22.0,-100.00,SSW,199,3.0,5.0,94,-99.99,,,-99.99,,2013-02-06 21:01:00,
2013-02-06 12:11:00,23.0,22.0,-100.00,SSW,199,3.0,5.0,94,-99.99,,,-99.99,,2013-02-06 21:11:00,
2013-02-06 12:21:00,24.0,23.0,-100.00,SSW,202,3.0,5.0,94,-99.99,,,-99.99,,2013-02-06 21:21:00,
2013-02-06 12:31:00,24.0,22.0,-100.00,SSW,212,3.0,5.0,93,-99.99,,,-99.99,,2013-02-06 21:31:00,
2013-02-06 12:41:00,24.0,22.0,-100.00,SSW,212,3.0,5.0,93,-99.99,,,-99.99,,2013-02-06 21:41:00,
2013-02-06 12:51:00,24.0,22.0,-100.00,SSW,201,6.0,10.0,93,-99.99,,,-99.99,,2013-02-06 21:51:00,
2013-02-06 13:01:00,24.0,22.0,-100.00,SW,217,4.0,11.0,92,-99.99,,,-99.99,,2013-02-06 22:01:00,
2013-02-06 13:11:00,24.0,22.0,-100.00,SW,217,4.0,11.0,92,-99.99,,,-99.99,,2013-02-06 22:11:00,
2013-02-06 13:21:00,23.0,21.0,-100.00,SW,226,4.0,7.0,93,-99.99,,,-99.99,,2013-02-06 22:21:00,
2013-02-06 13:31:00,22.0,20.0,-100.00,SW,221,5.0,9.0,93,-99.99,,,-99.99,,2013-02-06 22:31:00,
2013-02-06 13:41:00,22.0,20.0,-100.00,SW,221,5.0,9.0,93,-99.99,,,-99.99,,2013-02-06 22:41:00,
2013-02-06 13:51:00,22.0,21.0,-100.00,SW,233,7.0,10.0,94,-99.99,,,-99.99,,2013-02-06 22:51:00,
2013-02-06 14:01:00,22.0,21.0,-100.00,SW,226,8.0,13.0,94,-99.99,,,-99.99,,2013-02-06 23:01:00,
2013-02-06 14:11:00,22.0,21.0,-100.00,SW,226,8.0,13.0,94,-99.99,,,-99.99,,2013-02-06 23:11:00,
2013-02-06 14:21:00,22.0,21.0,-100.00,SW,221,7.0,14.0,94,-99.99,,,-99.99,,2013-02-06 23:21:00,
2013-02-06 14:31:00,22.0,21.0,-100.00,SW,221,7.0,14.0,94,-99.99,,,-99.99,,2013-02-06 23:31:00,
2013-02-06 14:41:00,22.0,21.0,-100.00,SW,221,7.0,14.0,94,-99.99,,,-99.99,,2013-02-06 23:41:00,
2013-02-06 14:52:00,22.0,21.0,-100.00,SW,230,7.0,12.0,95,-99.99,,,-99.99,,2013-02-06 23:52:00,
2013-02-06 15:01:00,22.0,21.0,-100.00,SW,218,8.0,14.0,94,-99.99,,,-99.99,,2013-02-07 00:01:00,
2013-02-06 15:11:00,22.0,21.0,-100.00,SW,218,8.0,14.0,94,-99.99,,,-99.99,,2013-02-07 00:11:00,
2013-02-06 15:21:00,21.0,20.0,-100.00,SW,215,10.0,16.0,95,-99.99,,,-99.99,,2013-02-07 00:21:00,
2013-02-06 15:31:00,21.0,20.0,-100.00,SSW,206,7.0,12.0,95,-99.99,,,-99.99,,2013-02-07 00:31:00,
2013-02-06 15:41:00,21.0,20.0,-100.00,SSW,206,7.0,12.0,95,-99.99,,,-99.99,,2013-02-07 00:41:00,
2013-02-06 15:51:00,21.0,20.0,-100.00,SSW,213,7.0,17.0,94,-99.99,,,-99.99,,2013-02-07 00:51:00,
2013-02-06 16:01:00,21.0,20.0,-100.00,SW,218,8.0,15.0,95,-99.99,,,-99.99,,2013-02-07 01:01:00,
2013-02-06 16:11:00,21.0,20.0,-100.00,SW,218,8.0,15.0,95,-99.99,,,-99.99,,2013-02-07 01:11:00,
2013-02-06 16:21:00,21.0,20.0,-100.00,SSW,212,6.0,15.0,95,-99.99,,,-99.99,,2013-02-07 01:21:00,
2013-02-06 16:31:00,21.0,20.0,-100.00,SSW,212,6.0,15.0,95,-99.99,,,-99.99,,2013-02-07 01:31:00,
2013-02-06 16:41:00,21.0,20.0,-100.00,SSW,212,6.0,15.0,95,-99.99,,,-99.99,,2013-02-07 01:41:00,
2013-02-06 16:52:00,21.0,20.0,-100.00,South,190,4.0,9.0,95,-99.99,,,-99.99,,2013-02-07 01:52:00,
2013-02-06 17:01:00,21.0,20.0,-100.00,SSW,194,2.0,6.0,95,-99.99,,,-99.99,,2013-02-07 02:01:00,
2013-02-06 17:11:00,21.0,20.0,-100.00,SSW,194,2.0,6.0,95,-99.99,,,-99.99,,2013-02-07 02:11:00,
2013-02-06 17:21:00,21.0,20.0,-100.00,SSW,202,2.0,4.0,95,-99.99,,,-99.99,,2013-02-07 02:21:00,
2013-02-06 17:31:00,21.0,20.0,-100.00,SW,219,4.0,6.0,95,-99.99,,,-99.99,,2013-02-07 02:31:00,
2013-02-06 17:41:00,21.0,20.0,-100.00,SW,219,4.0,6.0,95,-99.99,,,-99.99,,2013-02-07 02:41:00,
2013-02-06 17:51:00,21.0,20.0,-100.00,SW,219,4.0,6.0,95,-99.99,,,-99.99,,2013-02-07 02:51:00,
2013-02-06 18:02:00,21.0,20.0,-100.00,SW,222,3.0,6.0,95,-99.99,,,-99.99,,2013-02-07 03:02:00,
2013-02-06 18:11:00,21.0,20.0,-100.00,SW,222,3.0,6.0,95,-99.99,,,-99.99,,2013-02-07 03:11:00,
2013-02-06 18:21:00,21.0,20.0,-100.00,SW,224,3.0,6.0,95,-99.99,,,-99.99,,2013-02-07 03:21:00,
2013-02-06 18:31:00,21.0,20.0,-100.00,SW,224,3.0,6.0,95,-99.99,,,-99.99,,2013-02-07 03:31:00,
2013-02-06 18:41:00,21.0,20.0,-100.00,SW,224,3.0,6.0,95,-99.99,,,-99.99,,2013-02-07 03:41:00,
2013-02-06 18:51:00,20.0,19.0,-100.00,SW,221,1.0,3.0,94,-99.99,,,-99.99,,2013-02-07 03:51:00,
2013-02-06 19:01:00,20.0,19.0,-100.00,SW,232,2.0,4.0,94,-99.99,,,-99.99,,2013-02-07 04:01:00,
2013-02-06 19:11:00,20.0,19.0,-100.00,SW,232,2.0,4.0,94,-99.99,,,-99.99,,2013-02-07 04:11:00,
2013-02-06 19:22:00,21.0,20.0,-100.00,SSW,213,2.0,4.0,94,-99.99,,,-99.99,,2013-02-07 04:22:00,
2013-02-06 19:31:00,21.0,20.0,-100.00,SSW,206,1.0,3.0,94,-99.99,,,-99.99,,2013-02-07 04:31:00,
2013-02-06 19:41:00,21.0,20.0,-100.00,SSW,206,1.0,3.0,94,-99.99,,,-99.99,,2013-02-07 04:41:00,
2013-02-06 19:52:00,21.0,20.0,-100.00,SSW,213,1.0,2.0,95,-99.99,,,-99.99,,2013-02-07 04:52:00,
2013-02-06 20:01:00,21.0,20.0,-100.00,SW,228,0.0,2.0,94,-99.99,,,-99.99,,2013-02-07 05:01:00,
2013-02-06 20:11:00,21.0,20.0,-100.00,SW,228,0.0,2.0,94,-99.99,,,-99.99,,2013-02-07 05:11:00,
2013-02-06 20:21:00,21.0,20.0,-100.00,SW,214,0.0,1.0,94,-99.99,,,-99.99,,2013-02-07 05:21:00,
2013-02-06 20:32:00,21.0,20.0,-100.00,SSW,200,0.0,0.0,94,-99.99,,,-99.99,,2013-02-07 05:32:00,
2013-02-06 20:42:00,21.0,20.0,-100.00,SSW,200,0.0,0.0,94,-99.99,,,-99.99,,2013-02-07 05:42:00,
2013-02-06 20:52:00,21.0,20.0,-100.00,SW,226,1.0,2.0,94,-99.99,,,-99.99,,2013-02-07 05:52:00,
2013-02-06 21:01:00,21.0,20.0,-100.00,WSW,237,0.0,1.0,95,-99.99,,,-99.99,,2013-02-07 06:01:00,
2013-02-06 21:11:00,21.0,20.0,-100.00,WSW,237,0.0,1.0,95,-99.99,,,-99.99,,2013-02-07 06:11:00,
2013-02-06 21:22:00,21.0,20.0,-100.00,SW,222,0.0,0.0,95,-99.99,,,-99.99,,2013-02-07 06:22:00,
2013-02-06 21:31:00,21.0,20.0,-100.00,SW,227,0.0,1.0,95,-99.99,,,-99.99,,2013-02-07 06:31:00,
2013-02-06 21:43:00,21.0,20.0,-100.00,SW,227,0.0,1.0,95,-99.99,,,-99.99,,2013-02-07 06:43:00,
2013-02-06 21:52:00,21.0,20.0,-100.00,SSW,210,0.0,2.0,95,-99.99,,,-99.99,,2013-02-07 06:52:00,
2013-02-06 22:01:00,21.0,20.0,-100.00,SSW,204,0.0,2.0,94,-99.99,,,-99.99,,2013-02-07 07:01:00,
2013-02-06 22:11:00,21.0,20.0,-100.00,SSW,204,0.0,2.0,94,-99.99,,,-99.99,,2013-02-07 07:11:00,
2013-02-06 22:21:00,21.0,20.0,-100.00,SSW,204,0.0,2.0,94,-99.99,,,-99.99,,2013-02-07 07:21:00,
2013-02-06 22:31:00,21.0,20.0,-100.00,East,87,2.0,4.0,94,-99.99,,,-99.99,,2013-02-07 07:31:00,
2013-02-06 22:42:00,21.0,20.0,-100.00,East,87,2.0,4.0,94,-99.99,,,-99.99,,2013-02-07 07:42:00,
2013-02-06 22:52:00,21.0,20.0,-100.00,East,87,2.0,4.0,94,-99.99,,,-99.99,,2013-02-07 07:52:00,
2013-02-06 23:01:00,20.0,19.0,-100.00,East,89,0.0,2.0,94,-99.99,,,-99.99,,2013-02-07 08:01:00,
2013-02-06 23:11:00,20.0,19.0,-100.00,East,89,0.0,2.0,94,-99.99,,,-99.99,,2013-02-07 08:11:00,
2013-02-06 23:21:00,20.0,19.0,-100.00,SSW,203,0.0,2.0,94,-99.99,,,-99.99,,2013-02-07 08:21:00,
2013-02-06 23:31:00,20.0,18.0,-100.00,South,191,0.0,3.0,93,-99.99,,,-99.99,,2013-02-07 08:31:00,
2013-02-06 23:42:00,20.0,18.0,-100.00,South,191,0.0,3.0,93,-99.99,,,-99.99,,2013-02-07 08:42:00,
2013-02-06 23:52:00,20.0,19.0,-100.00,East,100,0.0,0.0,94,-99.99,,,-99.99,,2013-02-07 08:52:00,